Flight Track Log - Related Links

Times and Time Zones

All times are in EDT time to prevent confusion due to time zone crossing. See the VRT51 flight status page for this flight to view local times or setup timezone preferences in your user account.

Time Position Orientation Groundspeed Altitude Reporting Facility
EDT Latitude Longitude Course Direction KTS MPH feet Rate Location/Type
Sun 12:18:34 AM 41.7083 -71.4389 300° West 197 227 500  Level Boston Center
Sun 12:19:30 AM 41.6647 -71.4731 210° Southwest 323 372 2,500 2,504 Climbing Boston Center
Sun 12:20:29 AM 41.6025 -71.5183 209° Southwest 273 314 5,300 2,898 Climbing Boston Center
Sun 12:21:28 AM 41.5761 -71.5853 242° Southwest 226 260 8,200 3,328 Climbing Boston Center
Sun 12:22:28 AM 41.6206 -71.6792 302° West 231 266 11,900 3,550 Climbing Boston Center
Sun 12:23:00 AM 42.0186 -72.0878 300° West  Level FlightAware Approximate
Sun 12:23:28 AM 41.6669 -71.7619 307° West 287 330 15,300  Level Boston Center
Sun 12:24:29 AM 41.7258 -71.8700 306° West 321 369 18,700 2,876 Climbing Boston Center
Sun 12:25:29 AM 41.7742 -71.9669 304° West 332 382 21,100 2,529 Climbing Boston Center
Sun 12:26:30 AM 41.8308 -72.0722 306° West 351 404 23,800 2,600 Climbing Boston Center
Sun 12:27:29 AM 41.8894 -72.1836 305° West 356 410 26,300 2,269 Climbing Boston Center
Sun 12:28:29 AM 41.9481 -72.2950 305° West 356 410 28,300 1,866 Climbing Boston Center
Sun 12:29:28 AM 42.0086 -72.4094 305° West 356 410 30,000 1,613 Climbing Boston Center
Sun 12:30:28 AM 42.0211 -72.5436 277° West 353 406 31,500 1,500 Climbing Boston Center
Sun 12:31:28 AM 41.9939 -72.6719 254° West 353 406 33,000 1,537 Climbing Boston Center
Sun 12:32:29 AM 41.9725 -72.8058 258° West 353 406 34,600 1,700 Climbing Boston Center
Sun 12:33:28 AM 41.9492 -72.9342 256° West 360 414 36,400 1,714 Climbing Boston Center
Sun 12:34:28 AM 41.9236 -73.0567 254° West 353 406 38,000 1,600 Climbing Boston Center
Sun 12:35:28 AM 41.9042 -73.1708 257° West 334 384 39,600 1,537 Climbing Boston Center
Sun 12:36:29 AM 41.8825 -73.2767 255° West 313 360 41,100 1,000 Climbing Boston Center
Sun 12:37:28 AM 41.8650 -73.3794 257° West 296 341 41,600 347 Climbing Boston Center
Sun 12:38:30 AM 41.8453 -73.4881 256° West 296 341 41,800 149 Climbing Boston Center
Sun 12:39:29 AM 41.8256 -73.5961 256° West 296 341 41,900 203 Climbing Boston Center
Sun 12:40:28 AM 41.8033 -73.7128 256° West 307 353 42,200 353 Climbing Boston Center
Sun 12:41:28 AM 41.7875 -73.8267 259° West 313 360 42,600 344 Climbing Boston Center
Sun 12:42:30 AM 41.7653 -73.9431 256° West 318 366 42,900 197 Climbing Boston Center
Sun 12:43:30 AM 41.7406 -74.0706 255° West 334 384 43,000 51 Climbing Boston Center
Sun 12:44:28 AM 41.7178 -74.1950 256° West 341 392 43,000  Level Boston Center
Sun 12:45:29 AM 41.6928 -74.3278 256° West 360 414 43,000  Level Boston Center
Sun 12:46:30 AM 41.6589 -74.4742 253° West 366 421 43,000  Level Boston Center
Sun 12:47:30 AM 41.6336 -74.6011 255° West 366 421 43,000  Level Boston Center
Sun 12:48:28 AM 41.5978 -74.7275 249° West 366 421 43,000  Level Boston Center
Sun 12:49:30 AM 41.5514 -74.8508 243° Southwest 371 427 43,000  Level Boston Center
Sun 12:50:29 AM 41.5028 -74.9736 242° Southwest 377 434 43,000  Level Boston Center
Sun 12:51:29 AM 41.4583 -75.0939 244° Southwest 377 434 43,000  Level Boston Center
Sun 12:52:28 AM 41.4094 -75.2192 243° Southwest 377 434 43,000  Level Boston Center
Sun 12:53:29 AM 41.3628 -75.3414 243° Southwest 377 434 43,000  Level Boston Center
Sun 12:55:00 AM 41.2910 -75.5286 257° West  Level Estimated
Sun 01:02:00 AM 40.9556 -76.3874 255° West  Level Estimated
Sun 01:03:00 AM 40.9575 -76.5253 271° West  Level FlightAware Approximate
Sun 01:04:00 AM 40.9591 -76.6631 271° West  Level FlightAware Approximate
Sun 01:05:00 AM 40.9607 -76.8009 271° West  Level FlightAware Approximate
Sun 01:06:00 AM 40.9616 -76.8987 271° West  Level FlightAware Approximate
Sun 01:07:00 AM 40.9625 -76.9965 271° West  Level FlightAware Approximate
Sun 01:08:00 AM 40.9634 -77.0943 271° West  Level FlightAware Approximate
Sun 01:09:00 AM 40.9641 -77.1921 271° West  Level FlightAware Approximate
Sun 01:10:00 AM 40.9647 -77.2898 271° West  Level FlightAware Approximate
Sun 01:11:00 AM 40.9653 -77.3876 270° West  Level FlightAware Approximate
Sun 01:11:57 AM 40.4678 -77.5892 263° West 425 489 43,000  Level Cleveland Center
Sun 01:12:00 AM 40.9658 -77.4854 270° West  Level FlightAware Approximate
Sun 01:12:57 AM 40.4167 -77.7114 241° Southwest 399 459 43,000  Level Cleveland Center
Sun 01:13:00 AM 40.9662 -77.5832 270° West  Level FlightAware Approximate
Sun 01:13:57 AM 40.3675 -77.8308 242° Southwest 381 438 43,000  Level Cleveland Center
Sun 01:14:00 AM 40.9278 -77.6667 251° West  Level Estimated
Sun 01:14:57 AM 40.3183 -77.9525 242° Southwest 381 438 43,000  Level Cleveland Center
Sun 01:15:00 AM 40.9193 -77.7638 263° West  Level FlightAware Approximate
Sun 01:15:57 AM 40.2667 -78.0744 241° Southwest 381 438 43,000  Level Cleveland Center
Sun 01:16:00 AM 40.9109 -77.8609 263° West  Level FlightAware Approximate
Sun 01:16:57 AM 40.2172 -78.1931 241° Southwest 381 438 43,000  Level Cleveland Center
Sun 01:17:57 AM 40.1656 -78.3144 241° Southwest 381 438 43,000  Level Cleveland Center
Sun 01:18:57 AM 40.1136 -78.4383 241° Southwest 386 444 43,000  Level Cleveland Center
Sun 01:19:57 AM 40.0639 -78.5594 242° Southwest 386 444 43,000  Level Cleveland Center
Sun 01:20:57 AM 40.0117 -78.6775 240° Southwest 386 444 43,000  Level Cleveland Center
Sun 01:21:57 AM 39.9594 -78.7983 241° Southwest 381 438 43,000  Level Cleveland Center
Sun 01:22:57 AM 39.9092 -78.9158 241° Southwest 381 438 43,000  Level Cleveland Center
Sun 01:23:57 AM 39.8608 -79.0389 243° Southwest 381 438 43,000  Level Cleveland Center
Sun 01:24:57 AM 39.8081 -79.1617 241° Southwest 386 444 43,000  Level Cleveland Center
Sun 01:25:57 AM 39.7553 -79.2789 240° Southwest 386 444 43,000  Level Cleveland Center
Sun 01:26:57 AM 39.7025 -79.4014 241° Southwest 386 444 43,000  Level Cleveland Center
Sun 01:27:57 AM 39.6494 -79.5236 241° Southwest 386 444 43,000  Level Cleveland Center
Sun 01:28:57 AM 39.5964 -79.6456 241° Southwest 386 444 43,000  Level Cleveland Center
Sun 01:29:57 AM 39.5431 -79.7675 240° Southwest 386 444 43,000  Level Cleveland Center
Sun 01:30:57 AM 39.4878 -79.8892 240° Southwest 391 450 43,000  Level Cleveland Center
Sun 01:33:07 AM 39.3708 -80.1431 239° Southwest 393 452 43,000  Level Indianapolis Center
Sun 01:34:07 AM 39.3158 -80.2667 240° Southwest 395 455 43,000  Level Indianapolis Center
Sun 01:35:07 AM 39.2611 -80.3883 240° Southwest 395 455 43,000  Level Indianapolis Center
Sun 01:36:07 AM 39.2058 -80.5114 240° Southwest 394 453 43,000  Level Indianapolis Center
Sun 01:37:07 AM 39.1503 -80.6325 239° Southwest 393 452 43,000  Level Indianapolis Center
Sun 01:38:07 AM 39.0956 -80.7539 240° Southwest 393 452 43,000  Level Indianapolis Center
Sun 01:39:07 AM 39.0386 -80.8753 239° Southwest 395 455 43,000  Level Indianapolis Center
Sun 01:40:07 AM 38.9825 -80.9981 240° Southwest 399 459 43,000  Level Indianapolis Center
Sun 01:41:07 AM 38.9264 -81.1197 239° Southwest 398 458 43,000  Level Indianapolis Center
Sun 01:42:07 AM 38.8706 -81.2422 240° Southwest 399 459 43,000  Level Indianapolis Center
Sun 01:43:08 AM 38.8136 -81.3647 239° Southwest 400 460 43,000  Level Indianapolis Center
Sun 01:44:08 AM 38.7575 -81.4836 239° Southwest 404 465 43,000  Level Indianapolis Center
Sun 01:45:08 AM 38.7000 -81.6042 239° Southwest 399 459 43,000  Level Indianapolis Center
Sun 01:46:08 AM 38.6425 -81.7283 239° Southwest 402 463 43,000  Level Indianapolis Center
Sun 01:47:08 AM 38.5869 -81.8478 239° Southwest 409 471 43,000  Level Indianapolis Center
Sun 01:48:08 AM 38.5278 -81.9706 238° Southwest 406 467 43,000  Level Indianapolis Center
Sun 01:49:08 AM 38.4697 -82.0936 239° Southwest 407 468 43,000  Level Indianapolis Center
Sun 01:50:08 AM 38.4111 -82.2167 239° Southwest 405 466 43,000  Level Indianapolis Center
Sun 01:51:08 AM 38.3522 -82.3411 239° Southwest 409 471 43,000  Level Indianapolis Center
Sun 01:52:08 AM 38.2919 -82.4636 238° Southwest 407 468 43,000  Level Indianapolis Center
Sun 01:53:08 AM 38.2294 -82.5922 238° Southwest 406 467 43,000  Level Indianapolis Center
Sun 01:54:08 AM 38.1697 -82.7167 239° Southwest 411 473 43,000  Level Indianapolis Center
Sun 01:55:08 AM 38.1100 -82.8419 239° Southwest 415 478 43,000  Level Indianapolis Center
Sun 01:56:09 AM 38.0506 -82.9647 238° Southwest 411 473 43,000  Level Indianapolis Center
Sun 01:57:09 AM 37.9889 -83.0864 237° Southwest 410 472 43,000  Level Indianapolis Center
Sun 01:58:09 AM 37.9283 -83.2131 239° Southwest 420 483 43,000  Level Indianapolis Center
Sun 01:59:09 AM 37.8678 -83.3328 237° Southwest 408 470 43,000  Level Indianapolis Center
Sun 02:00:09 AM 37.8072 -83.4547 238° Southwest 410 472 43,000  Level Indianapolis Center
Sun 02:01:09 AM 37.7456 -83.5772 238° Southwest 412 474 43,000  Level Indianapolis Center
Sun 02:02:09 AM 37.6839 -83.7022 238° Southwest 418 481 43,000  Level Indianapolis Center
Sun 02:03:09 AM 37.6236 -83.8244 238° Southwest 414 476 43,000  Level Indianapolis Center
Sun 02:04:09 AM 37.5594 -83.9467 237° Southwest 418 481 43,000  Level Indianapolis Center
Sun 02:05:09 AM 37.4986 -84.0681 238° Southwest 413 475 43,000  Level Indianapolis Center
Sun 02:06:09 AM 37.4356 -84.1925 237° Southwest 419 482 43,000 -100 Level Indianapolis Center
Sun 02:07:09 AM 37.3742 -84.3142 238° Southwest 415 478 42,800 -1,150 Descending Indianapolis Center
Sun 02:08:09 AM 37.3117 -84.4372 237° Southwest 416 479 40,700 -2,100 Descending Indianapolis Center
Sun 02:09:09 AM 37.2467 -84.5617 237° Southwest 423 487 38,600 -2,150 Descending Indianapolis Center
Sun 02:10:09 AM 37.1831 -84.6847 237° Southwest 424 488 36,400 -2,200 Descending Indianapolis Center
Sun 02:11:09 AM 37.1167 -84.8131 237° Southwest 439 505 34,200 -2,250 Descending Indianapolis Center
Sun 02:12:09 AM 37.0533 -84.9381 238° Southwest 429 494 31,900 -2,331 Descending Indianapolis Center
Sun 02:13:10 AM 36.9867 -85.0661 237° Southwest 429 494 29,500 -2,380 Descending Indianapolis Center
Sun 02:14:10 AM 36.9367 -85.2081 246° West 446 513 27,100 -2,350 Descending Indianapolis Center
Sun 02:15:10 AM 36.8983 -85.3572 252° West 452 520 24,800 -2,350 Descending Indianapolis Center
Sun 02:16:10 AM 36.8681 -85.5089 256° West 446 513 22,400 -1,400 Descending Indianapolis Center
Sun 02:17:10 AM 36.8322 -85.6547 253° West 437 503 22,000 -200 Descending Indianapolis Center
Sun 02:18:10 AM 36.7678 -85.7839 238° Southwest 435 501 22,000 -750 Level Indianapolis Center
Sun 02:19:10 AM 36.6864 -85.8933 227° Southwest 429 494 20,500 -1,850 Descending Indianapolis Center
Sun 02:20:10 AM 36.6128 -85.9958 228° Southwest 402 463 18,300 -2,300 Descending Indianapolis Center
Sun 02:21:10 AM 36.5469 -86.0889 229° Southwest 364 419 15,900 -2,400 Descending Indianapolis Center
Sun 02:23:00 AM 36.4180 -86.2578 228° Southwest  Level FlightAware Approximate
Sun 02:30:00 AM 36.1167 -86.6667 228° Southwest  Level FlightAware Approximate
Sun 02:31:00 AM 36.1245 -86.6782 228° Southwest  Level Estimated
Sun 02:32:00 AM 36.1245 -86.6782 228° Southwest  Level Estimated
Sun 02:33:00 AM 36.1245 -86.6782 228° Southwest  Level Estimated
Sun 02:34:00 AM 36.1245 -86.6782 228° Southwest  Level Estimated
Sun 02:35:00 AM 36.1245 -86.6782 228° Southwest  Level Estimated
Sun 02:36:00 AM 36.1245 -86.6782 228° Southwest  Level Estimated
Sun 02:37:00 AM 36.1245 -86.6782 228° Southwest  Level Estimated
Sun 02:38:00 AM 36.1245 -86.6782 228° Southwest  Level Estimated
Sun 02:39:00 AM 36.1245 -86.6782 228° Southwest  Level Estimated
Sun 02:40:00 AM 36.1245 -86.6782 228° Southwest  Level Estimated

Login

Don't have an account? Register now (free) for customized features, flight alerts, and more!